sensor_id;sensor_type;location;lat;lon;timestamp;P1;durP1;ratioP1;P2;durP2;ratioP2
78120;SDS011;67585;44.802;10.332;2024-03-17T00:00:53;6.95;;;1.92;;
78120;SDS011;67585;44.802;10.332;2024-03-17T00:03:19;8.20;;;1.77;;
78120;SDS011;67585;44.802;10.332;2024-03-17T00:05:45;9.88;;;1.38;;
78120;SDS011;67585;44.802;10.332;2024-03-17T00:08:10;7.68;;;1.60;;
78120;SDS011;67585;44.802;10.332;2024-03-17T00:10:36;7.47;;;1.27;;
78120;SDS011;67585;44.802;10.332;2024-03-17T00:13:02;21.65;;;8.77;;
78120;SDS011;67585;44.802;10.332;2024-03-17T00:15:27;7.38;;;1.63;;
78120;SDS011;67585;44.802;10.332;2024-03-17T00:17:53;6.68;;;1.90;;
78120;SDS011;67585;44.802;10.332;2024-03-17T00:20:18;8.88;;;2.03;;
78120;SDS011;67585;44.802;10.332;2024-03-17T00:22:48;5.15;;;1.67;;
78120;SDS011;67585;44.802;10.332;2024-03-17T00:25:14;9.85;;;1.58;;
78120;SDS011;67585;44.802;10.332;2024-03-17T00:27:40;11.88;;;2.63;;
78120;SDS011;67585;44.802;10.332;2024-03-17T00:30:08;10.73;;;3.38;;
78120;SDS011;67585;44.802;10.332;2024-03-17T00:32:37;5.95;;;1.67;;
78120;SDS011;67585;44.802;10.332;2024-03-17T00:35:04;7.20;;;1.45;;
78120;SDS011;67585;44.802;10.332;2024-03-17T00:37:31;8.15;;;1.60;;
78120;SDS011;67585;44.802;10.332;2024-03-17T00:39:56;6.13;;;1.30;;
78120;SDS011;67585;44.802;10.332;2024-03-17T00:42:22;8.65;;;2.00;;
78120;SDS011;67585;44.802;10.332;2024-03-17T00:44:48;5.97;;;1.77;;
78120;SDS011;67585;44.802;10.332;2024-03-17T00:47:13;4.22;;;0.73;;
78120;SDS011;67585;44.802;10.332;2024-03-17T00:49:38;5.13;;;1.13;;
78120;SDS011;67585;44.802;10.332;2024-03-17T00:52:04;4.50;;;0.90;;
78120;SDS011;67585;44.802;10.332;2024-03-17T00:54:29;7.60;;;1.05;;
78120;SDS011;67585;44.802;10.332;2024-03-17T00:56:55;4.70;;;0.90;;
78120;SDS011;67585;44.802;10.332;2024-03-17T00:59:21;7.70;;;1.88;;
78120;SDS011;67585;44.802;10.332;2024-03-17T01:01:46;4.63;;;0.80;;
78120;SDS011;67585;44.802;10.332;2024-03-17T01:04:12;5.93;;;0.77;;
78120;SDS011;67585;44.802;10.332;2024-03-17T01:06:37;6.32;;;0.98;;
78120;SDS011;67585;44.802;10.332;2024-03-17T01:09:05;8.35;;;0.95;;
78120;SDS011;67585;44.802;10.332;2024-03-17T01:11:31;3.88;;;0.73;;
78120;SDS011;67585;44.802;10.332;2024-03-17T01:13:56;2.80;;;0.75;;
78120;SDS011;67585;44.802;10.332;2024-03-17T01:16:22;4.72;;;0.70;;
78120;SDS011;67585;44.802;10.332;2024-03-17T01:18:48;6.38;;;1.27;;
78120;SDS011;67585;44.802;10.332;2024-03-17T01:21:13;6.43;;;0.82;;
78120;SDS011;67585;44.802;10.332;2024-03-17T01:23:39;6.10;;;0.55;;
78120;SDS011;67585;44.802;10.332;2024-03-17T01:26:04;5.40;;;0.93;;
78120;SDS011;67585;44.802;10.332;2024-03-17T01:28:30;5.25;;;0.68;;
78120;SDS011;67585;44.802;10.332;2024-03-17T01:30:56;5.22;;;0.40;;
78120;SDS011;67585;44.802;10.332;2024-03-17T01:33:21;4.80;;;0.70;;
78120;SDS011;67585;44.802;10.332;2024-03-17T01:35:47;3.78;;;0.60;;
78120;SDS011;67585;44.802;10.332;2024-03-17T01:38:13;3.92;;;0.65;;
78120;SDS011;67585;44.802;10.332;2024-03-17T01:40:38;5.03;;;0.73;;
78120;SDS011;67585;44.802;10.332;2024-03-17T01:43:04;4.15;;;1.00;;
78120;SDS011;67585;44.802;10.332;2024-03-17T01:45:30;3.50;;;0.70;;
78120;SDS011;67585;44.802;10.332;2024-03-17T01:47:57;4.80;;;0.57;;
78120;SDS011;67585;44.802;10.332;2024-03-17T01:50:25;5.93;;;0.30;;
78120;SDS011;67585;44.802;10.332;2024-03-17T01:52:53;4.20;;;1.08;;
78120;SDS011;67585;44.802;10.332;2024-03-17T01:55:25;3.15;;;0.63;;
78120;SDS011;67585;44.802;10.332;2024-03-17T01:57:52;2.28;;;0.45;;
78120;SDS011;67585;44.802;10.332;2024-03-17T02:00:18;3.15;;;0.20;;
78120;SDS011;67585;44.802;10.332;2024-03-17T02:02:44;3.53;;;0.40;;
78120;SDS011;67585;44.802;10.332;2024-03-17T02:05:10;3.05;;;0.40;;
78120;SDS011;67585;44.802;10.332;2024-03-17T02:07:35;4.45;;;0.32;;
78120;SDS011;67585;44.802;10.332;2024-03-17T02:10:01;3.65;;;0.73;;
78120;SDS011;67585;44.802;10.332;2024-03-17T02:12:28;4.68;;;0.90;;
78120;SDS011;67585;44.802;10.332;2024-03-17T02:14:56;3.83;;;0.75;;
78120;SDS011;67585;44.802;10.332;2024-03-17T02:17:25;4.68;;;0.25;;
78120;SDS011;67585;44.802;10.332;2024-03-17T02:19:52;3.65;;;0.50;;
78120;SDS011;67585;44.802;10.332;2024-03-17T02:22:17;3.03;;;0.32;;
78120;SDS011;67585;44.802;10.332;2024-03-17T02:24:43;4.75;;;0.68;;
78120;SDS011;67585;44.802;10.332;2024-03-17T02:27:09;7.53;;;0.57;;
78120;SDS011;67585;44.802;10.332;2024-03-17T02:29:35;2.53;;;0.52;;
78120;SDS011;67585;44.802;10.332;2024-03-17T02:32:04;2.78;;;0.40;;
78120;SDS011;67585;44.802;10.332;2024-03-17T02:34:35;5.03;;;0.60;;
78120;SDS011;67585;44.802;10.332;2024-03-17T02:37:04;4.85;;;0.73;;
78120;SDS011;67585;44.802;10.332;2024-03-17T02:39:32;6.65;;;0.82;;
78120;SDS011;67585;44.802;10.332;2024-03-17T02:42:04;5.95;;;0.40;;
78120;SDS011;67585;44.802;10.332;2024-03-17T02:44:32;3.20;;;0.40;;
78120;SDS011;67585;44.802;10.332;2024-03-17T02:46:59;3.80;;;0.40;;
78120;SDS011;67585;44.802;10.332;2024-03-17T02:49:25;3.95;;;0.57;;
78120;SDS011;67585;44.802;10.332;2024-03-17T02:52:01;4.35;;;0.95;;
78120;SDS011;67585;44.802;10.332;2024-03-17T02:54:27;5.43;;;0.80;;
78120;SDS011;67585;44.802;10.332;2024-03-17T02:56:52;5.03;;;0.65;;
78120;SDS011;67585;44.802;10.332;2024-03-17T02:59:18;4.43;;;0.40;;
78120;SDS011;67585;44.802;10.332;2024-03-17T03:01:43;7.57;;;0.65;;
78120;SDS011;67585;44.802;10.332;2024-03-17T03:04:10;4.10;;;0.70;;
78120;SDS011;67585;44.802;10.332;2024-03-17T03:06:35;6.00;;;0.55;;
78120;SDS011;67585;44.802;10.332;2024-03-17T03:09:01;5.45;;;0.57;;
78120;SDS011;67585;44.802;10.332;2024-03-17T03:11:26;5.05;;;0.55;;
78120;SDS011;67585;44.802;10.332;2024-03-17T03:13:51;5.18;;;1.10;;
78120;SDS011;67585;44.802;10.332;2024-03-17T03:16:17;6.28;;;0.90;;
78120;SDS011;67585;44.802;10.332;2024-03-17T03:18:45;4.80;;;0.70;;
78120;SDS011;67585;44.802;10.332;2024-03-17T03:21:11;4.38;;;0.73;;
78120;SDS011;67585;44.802;10.332;2024-03-17T03:23:40;4.35;;;0.93;;
78120;SDS011;67585;44.802;10.332;2024-03-17T03:26:05;4.22;;;0.65;;
78120;SDS011;67585;44.802;10.332;2024-03-17T03:28:33;4.55;;;1.42;;
78120;SDS011;67585;44.802;10.332;2024-03-17T03:31:00;4.85;;;1.23;;
78120;SDS011;67585;44.802;10.332;2024-03-17T03:33:27;6.63;;;0.60;;
78120;SDS011;67585;44.802;10.332;2024-03-17T03:35:52;3.95;;;0.85;;
78120;SDS011;67585;44.802;10.332;2024-03-17T03:38:18;5.75;;;0.82;;
78120;SDS011;67585;44.802;10.332;2024-03-17T03:40:44;4.32;;;0.77;;
78120;SDS011;67585;44.802;10.332;2024-03-17T03:43:10;5.50;;;0.90;;
78120;SDS011;67585;44.802;10.332;2024-03-17T03:45:36;4.72;;;0.77;;
78120;SDS011;67585;44.802;10.332;2024-03-17T03:48:02;4.25;;;0.75;;
78120;SDS011;67585;44.802;10.332;2024-03-17T03:50:29;3.75;;;0.63;;
78120;SDS011;67585;44.802;10.332;2024-03-17T03:52:55;5.65;;;0.82;;
78120;SDS011;67585;44.802;10.332;2024-03-17T03:55:21;7.72;;;0.35;;
78120;SDS011;67585;44.802;10.332;2024-03-17T03:57:46;4.50;;;1.33;;
78120;SDS011;67585;44.802;10.332;2024-03-17T04:00:16;3.33;;;0.52;;
78120;SDS011;67585;44.802;10.332;2024-03-17T04:02:46;5.68;;;0.30;;
78120;SDS011;67585;44.802;10.332;2024-03-17T04:05:16;4.75;;;0.45;;
78120;SDS011;67585;44.802;10.332;2024-03-17T04:07:43;4.78;;;0.45;;
78120;SDS011;67585;44.802;10.332;2024-03-17T04:10:10;2.80;;;0.52;;
78120;SDS011;67585;44.802;10.332;2024-03-17T04:12:36;4.53;;;0.40;;
78120;SDS011;67585;44.802;10.332;2024-03-17T04:15:01;3.55;;;0.52;;
78120;SDS011;67585;44.802;10.332;2024-03-17T04:17:27;3.75;;;0.47;;
78120;SDS011;67585;44.802;10.332;2024-03-17T04:19:53;3.03;;;0.50;;
78120;SDS011;67585;44.802;10.332;2024-03-17T04:22:19;3.42;;;0.45;;
78120;SDS011;67585;44.802;10.332;2024-03-17T04:24:47;3.97;;;0.45;;
78120;SDS011;67585;44.802;10.332;2024-03-17T04:27:28;3.85;;;0.30;;
78120;SDS011;67585;44.802;10.332;2024-03-17T04:29:54;3.08;;;0.30;;
78120;SDS011;67585;44.802;10.332;2024-03-17T04:32:21;4.30;;;0.30;;
78120;SDS011;67585;44.802;10.332;2024-03-17T04:34:46;2.78;;;0.38;;
78120;SDS011;67585;44.802;10.332;2024-03-17T04:37:12;2.67;;;0.40;;
78120;SDS011;67585;44.802;10.332;2024-03-17T04:39:38;3.75;;;0.60;;
78120;SDS011;67585;44.802;10.332;2024-03-17T04:42:08;3.42;;;0.60;;
78120;SDS011;67585;44.802;10.332;2024-03-17T04:44:34;4.40;;;0.30;;
78120;SDS011;67585;44.802;10.332;2024-03-17T04:47:00;4.82;;;0.30;;
78120;SDS011;67585;44.802;10.332;2024-03-17T04:49:27;10.05;;;0.98;;
78120;SDS011;67585;44.802;10.332;2024-03-17T04:51:52;8.95;;;0.63;;
78120;SDS011;67585;44.802;10.332;2024-03-17T04:54:18;5.80;;;0.68;;
78120;SDS011;67585;44.802;10.332;2024-03-17T04:56:43;3.53;;;0.35;;
78120;SDS011;67585;44.802;10.332;2024-03-17T04:59:08;5.60;;;0.73;;
78120;SDS011;67585;44.802;10.332;2024-03-17T05:01:34;2.78;;;0.40;;
78120;SDS011;67585;44.802;10.332;2024-03-17T05:04:02;5.72;;;0.68;;
78120;SDS011;67585;44.802;10.332;2024-03-17T05:06:28;7.40;;;0.40;;
78120;SDS011;67585;44.802;10.332;2024-03-17T05:08:54;4.75;;;0.60;;
78120;SDS011;67585;44.802;10.332;2024-03-17T05:11:19;4.57;;;1.05;;
78120;SDS011;67585;44.802;10.332;2024-03-17T05:13:45;3.53;;;0.50;;
78120;SDS011;67585;44.802;10.332;2024-03-17T05:16:10;4.85;;;0.57;;
78120;SDS011;67585;44.802;10.332;2024-03-17T05:18:35;5.15;;;0.45;;
78120;SDS011;67585;44.802;10.332;2024-03-17T05:21:03;3.55;;;0.57;;
78120;SDS011;67585;44.802;10.332;2024-03-17T05:23:30;5.88;;;0.82;;
78120;SDS011;67585;44.802;10.332;2024-03-17T05:28:26;2.88;;;0.40;;
78120;SDS011;67585;44.802;10.332;2024-03-17T05:30:53;3.28;;;0.40;;
78120;SDS011;67585;44.802;10.332;2024-03-17T05:33:19;4.68;;;0.38;;
78120;SDS011;67585;44.802;10.332;2024-03-17T05:38:17;2.53;;;0.40;;
78120;SDS011;67585;44.802;10.332;2024-03-17T05:43:19;3.28;;;0.47;;
78120;SDS011;67585;44.802;10.332;2024-03-17T05:45:44;3.25;;;0.57;;
78120;SDS011;67585;44.802;10.332;2024-03-17T05:48:09;4.22;;;0.55;;
78120;SDS011;67585;44.802;10.332;2024-03-17T05:50:35;4.72;;;1.25;;
78120;SDS011;67585;44.802;10.332;2024-03-17T05:53:00;4.30;;;0.88;;
78120;SDS011;67585;44.802;10.332;2024-03-17T05:55:26;6.40;;;1.50;;
78120;SDS011;67585;44.802;10.332;2024-03-17T05:57:51;4.43;;;0.60;;
78120;SDS011;67585;44.802;10.332;2024-03-17T06:00:17;5.43;;;0.73;;
78120;SDS011;67585;44.802;10.332;2024-03-17T06:02:43;7.38;;;1.02;;
78120;SDS011;67585;44.802;10.332;2024-03-17T06:05:09;6.65;;;1.08;;
78120;SDS011;67585;44.802;10.332;2024-03-17T06:07:37;6.78;;;1.55;;
78120;SDS011;67585;44.802;10.332;2024-03-17T06:10:02;6.22;;;0.85;;
78120;SDS011;67585;44.802;10.332;2024-03-17T06:12:28;5.22;;;1.42;;
78120;SDS011;67585;44.802;10.332;2024-03-17T06:17:21;2.58;;;0.55;;
78120;SDS011;67585;44.802;10.332;2024-03-17T06:19:46;6.40;;;1.27;;
78120;SDS011;67585;44.802;10.332;2024-03-17T06:22:11;4.93;;;0.85;;
78120;SDS011;67585;44.802;10.332;2024-03-17T06:24:37;4.18;;;0.65;;
78120;SDS011;67585;44.802;10.332;2024-03-17T06:27:03;4.13;;;0.47;;
78120;SDS011;67585;44.802;10.332;2024-03-17T06:29:28;7.50;;;1.30;;
78120;SDS011;67585;44.802;10.332;2024-03-17T06:31:54;6.85;;;1.15;;
78120;SDS011;67585;44.802;10.332;2024-03-17T06:34:20;3.75;;;1.17;;
78120;SDS011;67585;44.802;10.332;2024-03-17T06:36:47;7.30;;;1.38;;
78120;SDS011;67585;44.802;10.332;2024-03-17T06:39:13;6.70;;;1.40;;
78120;SDS011;67585;44.802;10.332;2024-03-17T06:41:49;4.47;;;1.08;;
78120;SDS011;67585;44.802;10.332;2024-03-17T06:44:38;6.55;;;1.02;;
78120;SDS011;67585;44.802;10.332;2024-03-17T06:47:04;7.88;;;1.33;;
78120;SDS011;67585;44.802;10.332;2024-03-17T06:49:30;8.27;;;1.13;;
78120;SDS011;67585;44.802;10.332;2024-03-17T06:52:22;5.22;;;1.35;;
78120;SDS011;67585;44.802;10.332;2024-03-17T06:54:47;5.60;;;1.48;;
78120;SDS011;67585;44.802;10.332;2024-03-17T06:57:16;7.00;;;1.63;;
78120;SDS011;67585;44.802;10.332;2024-03-17T06:59:41;3.53;;;0.60;;
78120;SDS011;67585;44.802;10.332;2024-03-17T07:02:07;7.70;;;0.75;;
78120;SDS011;67585;44.802;10.332;2024-03-17T07:04:32;6.25;;;1.58;;
78120;SDS011;67585;44.802;10.332;2024-03-17T07:07:00;3.45;;;0.20;;
78120;SDS011;67585;44.802;10.332;2024-03-17T07:09:26;3.78;;;0.55;;
78120;SDS011;67585;44.802;10.332;2024-03-17T07:11:51;5.72;;;0.60;;
78120;SDS011;67585;44.802;10.332;2024-03-17T07:14:18;4.85;;;0.88;;
78120;SDS011;67585;44.802;10.332;2024-03-17T07:16:43;4.00;;;0.65;;
78120;SDS011;67585;44.802;10.332;2024-03-17T07:19:09;4.72;;;1.08;;
78120;SDS011;67585;44.802;10.332;2024-03-17T07:21:34;4.53;;;0.80;;
78120;SDS011;67585;44.802;10.332;2024-03-17T07:24:00;5.43;;;1.58;;
78120;SDS011;67585;44.802;10.332;2024-03-17T07:26:29;7.63;;;0.95;;
78120;SDS011;67585;44.802;10.332;2024-03-17T07:28:55;6.22;;;1.15;;
78120;SDS011;67585;44.802;10.332;2024-03-17T07:31:20;4.40;;;1.00;;
78120;SDS011;67585;44.802;10.332;2024-03-17T07:33:46;4.30;;;0.63;;
78120;SDS011;67585;44.802;10.332;2024-03-17T07:36:13;3.67;;;0.40;;
78120;SDS011;67585;44.802;10.332;2024-03-17T07:38:38;8.25;;;1.08;;
78120;SDS011;67585;44.802;10.332;2024-03-17T07:41:04;3.28;;;0.65;;
78120;SDS011;67585;44.802;10.332;2024-03-17T07:43:33;2.83;;;0.80;;
78120;SDS011;67585;44.802;10.332;2024-03-17T07:48:34;8.30;;;1.02;;
78120;SDS011;67585;44.802;10.332;2024-03-17T07:51:07;3.50;;;0.52;;
78120;SDS011;67585;44.802;10.332;2024-03-17T07:53:34;4.53;;;0.57;;
78120;SDS011;67585;44.802;10.332;2024-03-17T07:56:04;4.35;;;0.80;;
78120;SDS011;67585;44.802;10.332;2024-03-17T07:58:32;3.15;;;1.05;;
78120;SDS011;67585;44.802;10.332;2024-03-17T08:01:08;6.10;;;1.45;;
78120;SDS011;67585;44.802;10.332;2024-03-17T08:03:38;5.07;;;0.85;;
78120;SDS011;67585;44.802;10.332;2024-03-17T08:08:31;5.53;;;1.40;;
78120;SDS011;67585;44.802;10.332;2024-03-17T08:10:57;7.18;;;1.15;;
78120;SDS011;67585;44.802;10.332;2024-03-17T08:13:23;4.03;;;1.20;;
78120;SDS011;67585;44.802;10.332;2024-03-17T08:15:56;3.67;;;1.13;;
78120;SDS011;67585;44.802;10.332;2024-03-17T08:18:23;4.10;;;0.80;;
78120;SDS011;67585;44.802;10.332;2024-03-17T08:20:48;5.40;;;0.68;;
78120;SDS011;67585;44.802;10.332;2024-03-17T08:23:14;6.10;;;0.98;;
78120;SDS011;67585;44.802;10.332;2024-03-17T08:25:40;5.03;;;1.48;;
78120;SDS011;67585;44.802;10.332;2024-03-17T08:28:05;6.28;;;0.90;;
78120;SDS011;67585;44.802;10.332;2024-03-17T08:30:32;6.30;;;1.23;;
78120;SDS011;67585;44.802;10.332;2024-03-17T08:32:59;4.60;;;0.70;;
78120;SDS011;67585;44.802;10.332;2024-03-17T08:35:26;6.65;;;0.88;;
78120;SDS011;67585;44.802;10.332;2024-03-17T08:37:51;7.63;;;3.00;;
78120;SDS011;67585;44.802;10.332;2024-03-17T08:40:19;5.05;;;0.60;;
78120;SDS011;67585;44.802;10.332;2024-03-17T08:42:44;5.03;;;1.00;;
78120;SDS011;67585;44.802;10.332;2024-03-17T08:45:11;6.30;;;1.08;;
78120;SDS011;67585;44.802;10.332;2024-03-17T08:47:37;2.95;;;0.63;;
78120;SDS011;67585;44.802;10.332;2024-03-17T08:50:03;5.70;;;0.82;;
78120;SDS011;67585;44.802;10.332;2024-03-17T08:52:32;4.40;;;0.50;;
78120;SDS011;67585;44.802;10.332;2024-03-17T08:54:57;4.22;;;1.42;;
78120;SDS011;67585;44.802;10.332;2024-03-17T08:57:23;4.72;;;1.40;;
78120;SDS011;67585;44.802;10.332;2024-03-17T08:59:50;5.82;;;0.73;;
78120;SDS011;67585;44.802;10.332;2024-03-17T09:02:18;3.83;;;0.73;;
78120;SDS011;67585;44.802;10.332;2024-03-17T09:04:44;3.00;;;0.55;;
78120;SDS011;67585;44.802;10.332;2024-03-17T09:07:10;4.65;;;0.47;;
78120;SDS011;67585;44.802;10.332;2024-03-17T09:09:35;5.32;;;0.52;;
78120;SDS011;67585;44.802;10.332;2024-03-17T09:12:01;3.53;;;0.73;;
78120;SDS011;67585;44.802;10.332;2024-03-17T09:14:28;4.82;;;0.40;;
78120;SDS011;67585;44.802;10.332;2024-03-17T09:16:54;2.33;;;0.40;;
78120;SDS011;67585;44.802;10.332;2024-03-17T09:19:20;2.83;;;0.60;;
78120;SDS011;67585;44.802;10.332;2024-03-17T09:21:45;4.05;;;0.57;;
78120;SDS011;67585;44.802;10.332;2024-03-17T09:24:11;3.05;;;0.52;;
78120;SDS011;67585;44.802;10.332;2024-03-17T09:26:36;5.93;;;0.80;;
78120;SDS011;67585;44.802;10.332;2024-03-17T09:29:05;5.93;;;1.42;;
78120;SDS011;67585;44.802;10.332;2024-03-17T09:31:30;4.05;;;0.50;;
78120;SDS011;67585;44.802;10.332;2024-03-17T09:33:58;2.63;;;0.47;;
78120;SDS011;67585;44.802;10.332;2024-03-17T09:36:24;4.63;;;0.95;;
78120;SDS011;67585;44.802;10.332;2024-03-17T09:38:49;4.68;;;0.73;;
78120;SDS011;67585;44.802;10.332;2024-03-17T09:41:22;5.78;;;1.10;;
78120;SDS011;67585;44.802;10.332;2024-03-17T09:43:58;5.78;;;0.65;;
78120;SDS011;67585;44.802;10.332;2024-03-17T09:46:24;4.78;;;1.00;;
78120;SDS011;67585;44.802;10.332;2024-03-17T09:48:52;7.93;;;1.15;;
78120;SDS011;67585;44.802;10.332;2024-03-17T09:51:20;4.07;;;1.02;;
78120;SDS011;67585;44.802;10.332;2024-03-17T09:53:46;7.60;;;1.45;;
78120;SDS011;67585;44.802;10.332;2024-03-17T09:56:13;5.68;;;1.48;;
78120;SDS011;67585;44.802;10.332;2024-03-17T10:01:15;7.65;;;1.88;;
78120;SDS011;67585;44.802;10.332;2024-03-17T10:03:45;6.20;;;1.30;;
78120;SDS011;67585;44.802;10.332;2024-03-17T10:06:11;7.45;;;1.95;;
78120;SDS011;67585;44.802;10.332;2024-03-17T10:11:15;5.25;;;1.55;;
78120;SDS011;67585;44.802;10.332;2024-03-17T10:13:44;4.95;;;1.88;;
78120;SDS011;67585;44.802;10.332;2024-03-17T10:18:50;4.85;;;1.38;;
78120;SDS011;67585;44.802;10.332;2024-03-17T10:24:11;7.45;;;1.08;;
78120;SDS011;67585;44.802;10.332;2024-03-17T10:26:44;7.57;;;1.73;;
78120;SDS011;67585;44.802;10.332;2024-03-17T10:29:28;9.02;;;1.73;;
78120;SDS011;67585;44.802;10.332;2024-03-17T10:34:28;5.78;;;1.92;;
78120;SDS011;67585;44.802;10.332;2024-03-17T10:37:08;6.93;;;2.60;;
78120;SDS011;67585;44.802;10.332;2024-03-17T10:39:36;6.00;;;1.73;;
78120;SDS011;67585;44.802;10.332;2024-03-17T10:42:03;7.07;;;2.50;;
78120;SDS011;67585;44.802;10.332;2024-03-17T10:44:30;7.82;;;1.58;;
78120;SDS011;67585;44.802;10.332;2024-03-17T10:46:58;9.35;;;2.47;;
78120;SDS011;67585;44.802;10.332;2024-03-17T10:49:27;8.93;;;2.55;;
78120;SDS011;67585;44.802;10.332;2024-03-17T10:51:57;8.93;;;2.65;;
78120;SDS011;67585;44.802;10.332;2024-03-17T10:54:27;6.82;;;2.42;;
78120;SDS011;67585;44.802;10.332;2024-03-17T10:59:48;6.35;;;2.00;;
78120;SDS011;67585;44.802;10.332;2024-03-17T11:02:21;7.00;;;2.53;;
78120;SDS011;67585;44.802;10.332;2024-03-17T11:04:51;12.27;;;2.63;;
78120;SDS011;67585;44.802;10.332;2024-03-17T11:07:18;10.77;;;2.70;;
78120;SDS011;67585;44.802;10.332;2024-03-17T11:09:45;9.60;;;2.53;;
78120;SDS011;67585;44.802;10.332;2024-03-17T11:20:36;11.45;;;3.17;;
78120;SDS011;67585;44.802;10.332;2024-03-17T11:23:02;9.55;;;3.03;;
78120;SDS011;67585;44.802;10.332;2024-03-17T11:28:02;10.85;;;4.07;;
78120;SDS011;67585;44.802;10.332;2024-03-17T11:41:42;12.10;;;4.78;;
78120;SDS011;67585;44.802;10.332;2024-03-17T11:46:54;12.95;;;3.97;;
78120;SDS011;67585;44.802;10.332;2024-03-17T11:51:48;12.80;;;4.32;;
78120;SDS011;67585;44.802;10.332;2024-03-17T11:54:15;14.60;;;3.88;;
78120;SDS011;67585;44.802;10.332;2024-03-17T11:56:45;11.20;;;4.22;;
78120;SDS011;67585;44.802;10.332;2024-03-17T11:59:15;11.10;;;3.97;;
78120;SDS011;67585;44.802;10.332;2024-03-17T12:01:43;13.85;;;4.68;;
78120;SDS011;67585;44.802;10.332;2024-03-17T12:04:14;10.30;;;3.75;;
78120;SDS011;67585;44.802;10.332;2024-03-17T12:06:44;14.43;;;4.97;;
78120;SDS011;67585;44.802;10.332;2024-03-17T12:09:20;10.50;;;5.38;;
78120;SDS011;67585;44.802;10.332;2024-03-17T12:11:46;10.90;;;4.28;;
78120;SDS011;67585;44.802;10.332;2024-03-17T12:14:15;13.10;;;4.38;;
78120;SDS011;67585;44.802;10.332;2024-03-17T12:19:15;10.88;;;5.20;;
78120;SDS011;67585;44.802;10.332;2024-03-17T12:21:51;15.38;;;5.75;;
78120;SDS011;67585;44.802;10.332;2024-03-17T12:24:19;13.15;;;4.82;;
78120;SDS011;67585;44.802;10.332;2024-03-17T12:26:47;11.68;;;4.55;;
78120;SDS011;67585;44.802;10.332;2024-03-17T12:29:22;14.70;;;5.47;;
78120;SDS011;67585;44.802;10.332;2024-03-17T12:31:58;11.65;;;5.72;;
78120;SDS011;67585;44.802;10.332;2024-03-17T12:34:26;12.07;;;5.20;;
78120;SDS011;67585;44.802;10.332;2024-03-17T12:36:53;13.18;;;5.72;;
78120;SDS011;67585;44.802;10.332;2024-03-17T12:39:23;14.57;;;4.70;;
78120;SDS011;67585;44.802;10.332;2024-03-17T12:42:09;15.70;;;5.90;;
78120;SDS011;67585;44.802;10.332;2024-03-17T12:47:23;13.55;;;6.45;;
78120;SDS011;67585;44.802;10.332;2024-03-17T12:49:51;18.10;;;7.05;;
78120;SDS011;67585;44.802;10.332;2024-03-17T12:52:18;13.80;;;6.63;;
78120;SDS011;67585;44.802;10.332;2024-03-17T12:54:45;15.02;;;5.95;;
78120;SDS011;67585;44.802;10.332;2024-03-17T12:57:40;14.27;;;5.70;;
78120;SDS011;67585;44.802;10.332;2024-03-17T13:00:24;15.63;;;6.32;;
78120;SDS011;67585;44.802;10.332;2024-03-17T13:02:56;17.23;;;7.85;;
78120;SDS011;67585;44.802;10.332;2024-03-17T13:05:22;16.23;;;7.45;;
78120;SDS011;67585;44.802;10.332;2024-03-17T13:07:48;18.52;;;7.43;;
78120;SDS011;67585;44.802;10.332;2024-03-17T13:12:44;18.23;;;7.15;;
78120;SDS011;67585;44.802;10.332;2024-03-17T13:15:15;16.40;;;7.07;;
78120;SDS011;67585;44.802;10.332;2024-03-17T13:17:42;19.02;;;8.05;;
78120;SDS011;67585;44.802;10.332;2024-03-17T13:20:12;23.92;;;10.95;;
78120;SDS011;67585;44.802;10.332;2024-03-17T13:22:44;19.58;;;8.32;;
78120;SDS011;67585;44.802;10.332;2024-03-17T13:27:40;21.15;;;9.05;;
78120;SDS011;67585;44.802;10.332;2024-03-17T13:32:35;17.45;;;7.93;;
78120;SDS011;67585;44.802;10.332;2024-03-17T13:35:01;19.92;;;8.70;;
78120;SDS011;67585;44.802;10.332;2024-03-17T13:37:27;21.25;;;9.43;;
78120;SDS011;67585;44.802;10.332;2024-03-17T13:39:53;19.85;;;7.40;;
78120;SDS011;67585;44.802;10.332;2024-03-17T13:42:18;22.48;;;8.93;;
78120;SDS011;67585;44.802;10.332;2024-03-17T13:44:45;20.52;;;9.05;;
78120;SDS011;67585;44.802;10.332;2024-03-17T13:47:11;20.33;;;7.78;;
78120;SDS011;67585;44.802;10.332;2024-03-17T13:49:42;26.10;;;9.88;;
78120;SDS011;67585;44.802;10.332;2024-03-17T13:52:07;21.10;;;9.13;;
78120;SDS011;67585;44.802;10.332;2024-03-17T13:54:33;21.73;;;9.45;;
78120;SDS011;67585;44.802;10.332;2024-03-17T13:56:59;18.23;;;8.90;;
78120;SDS011;67585;44.802;10.332;2024-03-17T13:59:27;21.40;;;8.52;;
78120;SDS011;67585;44.802;10.332;2024-03-17T14:01:53;21.13;;;8.27;;
78120;SDS011;67585;44.802;10.332;2024-03-17T14:04:18;18.10;;;8.32;;
78120;SDS011;67585;44.802;10.332;2024-03-17T14:06:47;20.45;;;8.38;;
78120;SDS011;67585;44.802;10.332;2024-03-17T14:09:16;17.63;;;8.10;;
78120;SDS011;67585;44.802;10.332;2024-03-17T14:11:44;20.08;;;8.48;;
78120;SDS011;67585;44.802;10.332;2024-03-17T14:14:11;17.38;;;7.07;;
78120;SDS011;67585;44.802;10.332;2024-03-17T14:16:37;24.75;;;9.70;;
78120;SDS011;67585;44.802;10.332;2024-03-17T14:19:03;17.02;;;8.05;;
78120;SDS011;67585;44.802;10.332;2024-03-17T14:21:28;20.77;;;8.48;;
78120;SDS011;67585;44.802;10.332;2024-03-17T14:23:54;21.60;;;9.23;;
78120;SDS011;67585;44.802;10.332;2024-03-17T14:26:21;21.90;;;9.10;;
78120;SDS011;67585;44.802;10.332;2024-03-17T14:28:47;20.65;;;8.55;;
78120;SDS011;67585;44.802;10.332;2024-03-17T14:31:15;19.17;;;8.43;;
78120;SDS011;67585;44.802;10.332;2024-03-17T14:33:40;20.27;;;8.20;;
78120;SDS011;67585;44.802;10.332;2024-03-17T14:36:06;20.80;;;9.52;;
78120;SDS011;67585;44.802;10.332;2024-03-17T14:38:31;20.83;;;7.93;;
78120;SDS011;67585;44.802;10.332;2024-03-17T14:40:57;16.98;;;7.55;;
78120;SDS011;67585;44.802;10.332;2024-03-17T14:43:22;20.88;;;8.55;;
78120;SDS011;67585;44.802;10.332;2024-03-17T14:45:48;18.55;;;7.85;;
78120;SDS011;67585;44.802;10.332;2024-03-17T14:48:14;20.58;;;8.45;;
78120;SDS011;67585;44.802;10.332;2024-03-17T14:50:40;21.60;;;8.48;;
78120;SDS011;67585;44.802;10.332;2024-03-17T14:53:05;19.00;;;8.90;;
78120;SDS011;67585;44.802;10.332;2024-03-17T14:55:31;26.40;;;9.65;;
78120;SDS011;67585;44.802;10.332;2024-03-17T14:57:59;19.33;;;9.00;;
78120;SDS011;67585;44.802;10.332;2024-03-17T15:00:28;20.60;;;8.55;;
78120;SDS011;67585;44.802;10.332;2024-03-17T15:02:55;21.10;;;9.13;;
78120;SDS011;67585;44.802;10.332;2024-03-17T15:05:21;18.13;;;8.70;;
78120;SDS011;67585;44.802;10.332;2024-03-17T15:07:48;18.50;;;8.48;;
78120;SDS011;67585;44.802;10.332;2024-03-17T15:10:13;19.65;;;9.93;;
78120;SDS011;67585;44.802;10.332;2024-03-17T15:12:49;26.10;;;8.90;;
78120;SDS011;67585;44.802;10.332;2024-03-17T15:15:15;20.58;;;9.30;;
78120;SDS011;67585;44.802;10.332;2024-03-17T15:17:41;22.65;;;9.13;;
78120;SDS011;67585;44.802;10.332;2024-03-17T15:20:09;22.40;;;9.18;;
78120;SDS011;67585;44.802;10.332;2024-03-17T15:22:45;23.02;;;8.98;;
78120;SDS011;67585;44.802;10.332;2024-03-17T15:25:17;23.10;;;9.45;;
78120;SDS011;67585;44.802;10.332;2024-03-17T15:27:45;25.25;;;8.35;;
78120;SDS011;67585;44.802;10.332;2024-03-17T15:30:15;20.58;;;8.27;;
78120;SDS011;67585;44.802;10.332;2024-03-17T15:32:43;21.55;;;8.60;;
78120;SDS011;67585;44.802;10.332;2024-03-17T15:35:10;22.08;;;9.15;;
78120;SDS011;67585;44.802;10.332;2024-03-17T15:37:38;22.30;;;8.20;;
78120;SDS011;67585;44.802;10.332;2024-03-17T15:40:04;19.80;;;8.95;;
78120;SDS011;67585;44.802;10.332;2024-03-17T15:42:29;22.05;;;10.27;;